Time,TemperatureF,DewpointF,PressureIn,WindDirection,WindDirectionDegrees,WindSpeedMPH,WindSpeedGustMPH,Humidity,HourlyPrecipIn,Conditions,Clouds,dailyrainin,SoftwareType,DateUTC
2013-10-11 00:00:00,69.1,68.8,29.99,North,32767,0.0,0.0,99,0.00,,,0.00,Wunderground v.1.15,2013-10-11 05:00:00,
2013-10-11 00:05:00,69.1,68.8,29.99,North,32767,0.0,0.0,99,0.00,,,0.00,Wunderground v.1.15,2013-10-11 05:05:00,
2013-10-11 00:10:00,69.0,68.7,29.99,North,32767,0.0,0.0,99,0.00,,,0.00,Wunderground v.1.15,2013-10-11 05:10:00,
2013-10-11 00:15:00,68.9,68.6,29.99,North,32767,0.0,0.0,99,0.00,,,0.00,Wunderground v.1.15,2013-10-11 05:15:00,
2013-10-11 00:20:00,68.8,68.5,29.99,North,32767,0.0,0.0,99,0.00,,,0.00,Wunderground v.1.15,2013-10-11 05:20:00,
2013-10-11 00:25:00,68.7,68.4,30.00,North,32767,0.0,0.0,99,0.00,,,0.00,Wunderground v.1.15,2013-10-11 05:25:00,
2013-10-11 00:30:00,68.7,68.4,29.99,North,32767,0.0,0.0,99,0.00,,,0.00,Wunderground v.1.15,2013-10-11 05:30:00,
2013-10-11 00:35:00,68.6,68.3,29.99,North,32767,0.0,0.0,99,0.00,,,0.00,Wunderground v.1.15,2013-10-11 05:35:00,
2013-10-11 00:40:00,68.6,68.3,29.99,North,32767,0.0,0.0,99,0.00,,,0.00,Wunderground v.1.15,2013-10-11 05:40:00,
2013-10-11 00:45:00,68.5,68.2,29.99,North,32767,0.0,0.0,99,0.00,,,0.00,Wunderground v.1.15,2013-10-11 05:45:00,
2013-10-11 00:50:00,68.4,68.1,29.99,North,32767,0.0,0.0,99,0.00,,,0.00,Wunderground v.1.15,2013-10-11 05:50:00,
2013-10-11 00:55:00,68.3,68.0,29.99,North,32767,0.0,0.0,99,0.00,,,0.00,Wunderground v.1.15,2013-10-11 05:55:00,
2013-10-11 01:00:00,68.3,68.0,29.99,North,32767,0.0,0.0,99,0.00,,,0.00,Wunderground v.1.15,2013-10-11 06:00:00,
2013-10-11 01:05:00,68.3,68.0,29.99,North,32767,0.0,0.0,99,0.00,,,0.00,Wunderground v.1.15,2013-10-11 06:05:00,
2013-10-11 01:10:00,68.4,68.1,29.99,North,32767,0.0,0.0,99,0.00,,,0.00,Wunderground v.1.15,2013-10-11 06:10:00,
2013-10-11 01:15:00,68.3,68.0,29.99,North,32767,0.0,0.0,99,0.00,,,0.00,Wunderground v.1.15,2013-10-11 06:15:00,
2013-10-11 01:20:00,68.2,67.9,29.99,North,32767,0.0,0.0,99,0.00,,,0.00,Wunderground v.1.15,2013-10-11 06:20:00,
2013-10-11 01:30:00,68.1,67.8,29.99,North,32767,0.0,0.0,99,0.00,,,0.00,Wunderground v.1.15,2013-10-11 06:30:00,
2013-10-11 01:35:00,68.1,67.8,29.99,North,32767,0.0,0.0,99,0.00,,,0.00,Wunderground v.1.15,2013-10-11 06:35:00,
2013-10-11 01:40:00,68.1,67.8,29.99,North,32767,0.0,0.0,99,0.00,,,0.00,Wunderground v.1.15,2013-10-11 06:40:00,
2013-10-11 01:45:00,68.1,67.8,29.99,North,32767,0.0,0.0,99,0.00,,,0.00,Wunderground v.1.15,2013-10-11 06:45:00,
2013-10-11 01:50:00,68.0,68.0,29.99,North,32767,0.0,0.0,100,0.00,,,0.00,Wunderground v.1.15,2013-10-11 06:50:00,
2013-10-11 01:55:00,68.0,68.0,29.99,North,32767,0.0,0.0,100,0.00,,,0.00,Wunderground v.1.15,2013-10-11 06:55:00,
2013-10-11 02:00:00,67.9,67.9,29.99,North,32767,0.0,0.0,100,0.00,,,0.00,Wunderground v.1.15,2013-10-11 07:00:00,
2013-10-11 02:05:00,67.8,67.8,29.99,North,32767,0.0,0.0,100,0.00,,,0.00,Wunderground v.1.15,2013-10-11 07:05:00,
2013-10-11 02:10:00,67.7,67.7,29.98,North,32767,0.0,0.0,100,0.00,,,0.00,Wunderground v.1.15,2013-10-11 07:10:00,
2013-10-11 02:15:00,67.7,67.7,29.99,North,32767,0.0,0.0,100,0.00,,,0.00,Wunderground v.1.15,2013-10-11 07:15:00,
2013-10-11 02:20:00,67.7,67.4,29.98,North,32767,0.0,0.0,99,0.00,,,0.00,Wunderground v.1.15,2013-10-11 07:20:00,
2013-10-11 02:25:00,67.6,67.3,29.98,North,32767,0.0,0.0,99,0.00,,,0.00,Wunderground v.1.15,2013-10-11 07:25:00,
2013-10-11 02:30:00,67.5,67.2,29.98,North,32767,0.0,0.0,99,0.00,,,0.00,Wunderground v.1.15,2013-10-11 07:30:00,
2013-10-11 02:40:00,67.4,67.4,29.98,North,32767,0.0,0.0,100,0.00,,,0.00,Wunderground v.1.15,2013-10-11 07:40:00,
2013-10-11 02:45:00,67.4,67.4,29.98,North,32767,0.0,0.0,100,0.00,,,0.00,Wunderground v.1.15,2013-10-11 07:45:00,
2013-10-11 02:50:00,67.3,67.3,29.98,North,32767,0.0,0.0,100,0.00,,,0.00,Wunderground v.1.15,2013-10-11 07:50:00,
2013-10-11 02:55:00,67.4,67.4,29.98,North,32767,0.0,0.0,100,0.00,,,0.00,Wunderground v.1.15,2013-10-11 07:55:00,
2013-10-11 03:00:00,67.5,67.2,29.98,North,32767,0.0,0.0,99,0.00,,,0.00,Wunderground v.1.15,2013-10-11 08:00:00,
2013-10-11 03:05:00,67.5,67.2,29.98,North,32767,0.0,0.0,99,0.00,,,0.00,Wunderground v.1.15,2013-10-11 08:05:00,
2013-10-11 03:15:00,67.4,67.4,29.98,North,32767,0.0,0.0,100,0.00,,,0.00,Wunderground v.1.15,2013-10-11 08:15:00,
2013-10-11 03:20:00,67.4,67.4,29.98,North,32767,0.0,0.0,100,0.00,,,0.00,Wunderground v.1.15,2013-10-11 08:20:00,
2013-10-11 03:25:00,67.4,67.4,29.98,North,32767,0.0,0.0,100,0.00,,,0.00,Wunderground v.1.15,2013-10-11 08:25:00,
2013-10-11 03:30:00,67.6,67.3,29.98,North,32767,0.0,0.0,99,0.00,,,0.00,Wunderground v.1.15,2013-10-11 08:30:00,
2013-10-11 03:35:00,67.7,67.4,29.98,North,32767,0.0,0.0,99,0.00,,,0.00,Wunderground v.1.15,2013-10-11 08:35:00,
2013-10-11 03:40:00,67.7,67.7,29.98,North,32767,0.0,0.0,100,0.00,,,0.00,Wunderground v.1.15,2013-10-11 08:40:00,
2013-10-11 03:50:00,67.8,67.8,29.98,North,32767,0.0,0.0,100,0.00,,,0.00,Wunderground v.1.15,2013-10-11 08:50:00,
2013-10-11 03:55:00,67.8,67.8,29.98,North,32767,0.0,0.0,100,0.00,,,0.00,Wunderground v.1.15,2013-10-11 08:55:00,
2013-10-11 04:00:00,67.8,67.8,29.98,North,32767,0.0,0.0,100,0.00,,,0.00,Wunderground v.1.15,2013-10-11 09:00:00,
2013-10-11 04:05:00,67.9,67.9,29.98,North,32767,0.0,0.0,100,0.00,,,0.00,Wunderground v.1.15,2013-10-11 09:05:00,
2013-10-11 04:15:00,68.1,67.8,29.99,North,32767,0.0,0.0,99,0.00,,,0.00,Wunderground v.1.15,2013-10-11 09:15:00,
2013-10-11 04:20:00,68.1,67.8,29.99,North,32767,0.0,0.0,99,0.00,,,0.00,Wunderground v.1.15,2013-10-11 09:20:00,
2013-10-11 04:25:00,68.1,67.8,29.99,North,32767,0.0,0.0,99,0.00,,,0.00,Wunderground v.1.15,2013-10-11 09:25:00,
2013-10-11 04:30:00,68.0,68.0,29.99,North,32767,0.0,0.0,100,0.00,,,0.00,Wunderground v.1.15,2013-10-11 09:30:00,
2013-10-11 04:35:00,67.9,67.9,29.99,North,32767,0.0,0.0,100,0.00,,,0.00,Wunderground v.1.15,2013-10-11 09:35:00,
2013-10-11 04:40:00,67.9,67.9,29.99,North,32767,0.0,0.0,100,0.00,,,0.00,Wunderground v.1.15,2013-10-11 09:40:00,
2013-10-11 04:45:00,67.8,67.8,29.99,North,32767,0.0,0.0,100,0.00,,,0.00,Wunderground v.1.15,2013-10-11 09:45:00,
2013-10-11 04:50:00,67.8,67.8,29.99,North,32767,0.0,0.0,100,0.00,,,0.00,Wunderground v.1.15,2013-10-11 09:50:00,
2013-10-11 04:55:00,67.7,67.7,29.99,North,32767,0.0,0.0,100,0.00,,,0.00,Wunderground v.1.15,2013-10-11 09:55:00,
2013-10-11 05:00:00,67.7,67.7,29.99,North,32767,0.0,0.0,100,0.00,,,0.00,Wunderground v.1.15,2013-10-11 10:00:00,
2013-10-11 05:05:00,67.6,67.6,29.99,North,32767,0.0,0.0,100,0.00,,,0.00,Wunderground v.1.15,2013-10-11 10:05:00,
2013-10-11 05:10:00,67.6,67.6,29.99,North,32767,0.0,0.0,100,0.00,,,0.00,Wunderground v.1.15,2013-10-11 10:10:00,
2013-10-11 05:20:00,67.5,67.5,29.99,North,32767,0.0,0.0,100,0.00,,,0.00,Wunderground v.1.15,2013-10-11 10:20:00,
2013-10-11 05:25:00,67.5,67.5,29.99,North,32767,0.0,0.0,100,0.00,,,0.00,Wunderground v.1.15,2013-10-11 10:25:00,
2013-10-11 05:30:00,67.5,67.5,29.99,North,32767,0.0,0.0,100,0.00,,,0.00,Wunderground v.1.15,2013-10-11 10:30:00,
2013-10-11 05:35:00,67.5,67.5,29.99,North,32767,0.0,0.0,100,0.00,,,0.00,Wunderground v.1.15,2013-10-11 10:35:00,
2013-10-11 05:40:00,67.5,67.5,29.99,North,32767,0.0,0.0,100,0.00,,,0.00,Wunderground v.1.15,2013-10-11 10:40:00,
2013-10-11 05:45:00,67.6,67.6,29.99,North,32767,0.0,0.0,100,0.00,,,0.00,Wunderground v.1.15,2013-10-11 10:45:00,
2013-10-11 05:50:00,67.6,67.6,30.00,North,32767,0.0,0.0,100,0.00,,,0.00,Wunderground v.1.15,2013-10-11 10:50:00,
2013-10-11 05:55:00,67.7,67.7,30.00,North,32767,0.0,0.0,100,0.00,,,0.00,Wunderground v.1.15,2013-10-11 10:55:00,
2013-10-11 06:00:00,67.7,67.7,30.00,North,32767,0.0,0.0,100,0.00,,,0.00,Wunderground v.1.15,2013-10-11 11:00:00,
2013-10-11 06:05:00,67.7,67.7,30.00,North,32767,0.0,0.0,100,0.00,,,0.00,Wunderground v.1.15,2013-10-11 11:05:00,
2013-10-11 06:10:00,67.8,67.8,30.00,North,32767,0.0,0.0,100,0.00,,,0.00,Wunderground v.1.15,2013-10-11 11:10:00,
2013-10-11 06:15:00,67.9,67.9,30.00,North,32767,0.0,0.0,100,0.00,,,0.00,Wunderground v.1.15,2013-10-11 11:15:00,
2013-10-11 06:20:00,68.0,68.0,30.00,North,32767,0.0,0.0,100,0.00,,,0.00,Wunderground v.1.15,2013-10-11 11:20:00,
2013-10-11 06:25:00,68.1,68.1,30.00,North,32767,0.0,0.0,100,0.00,,,0.00,Wunderground v.1.15,2013-10-11 11:25:00,
2013-10-11 06:30:00,68.1,68.1,30.00,North,32767,0.0,0.0,100,0.00,,,0.00,Wunderground v.1.15,2013-10-11 11:30:00,
2013-10-11 06:35:00,68.0,68.0,30.00,North,32767,0.0,0.0,100,0.00,,,0.00,Wunderground v.1.15,2013-10-11 11:35:00,
2013-10-11 06:40:00,68.0,68.0,30.00,North,32767,0.0,0.0,100,0.00,,,0.00,Wunderground v.1.15,2013-10-11 11:40:00,
2013-10-11 06:45:00,67.9,67.9,30.00,North,32767,0.0,0.0,100,0.00,,,0.00,Wunderground v.1.15,2013-10-11 11:45:00,
2013-10-11 06:50:00,67.8,67.8,30.00,North,32767,0.0,0.0,100,0.00,,,0.00,Wunderground v.1.15,2013-10-11 11:50:00,
2013-10-11 06:55:00,67.7,67.7,30.00,North,32767,0.0,0.0,100,0.00,,,0.00,Wunderground v.1.15,2013-10-11 11:55:00,
2013-10-11 07:00:00,67.6,67.6,30.00,North,32767,0.0,0.0,100,0.00,,,0.00,Wunderground v.1.15,2013-10-11 12:00:00,
2013-10-11 07:05:00,67.5,67.5,30.01,North,32767,0.0,0.0,100,0.00,,,0.00,Wunderground v.1.15,2013-10-11 12:05:00,
2013-10-11 07:10:00,67.6,67.6,30.01,North,32767,0.0,0.0,100,0.00,,,0.00,Wunderground v.1.15,2013-10-11 12:10:00,
2013-10-11 07:15:00,67.8,67.8,30.01,North,32767,0.0,0.0,100,0.00,,,0.00,Wunderground v.1.15,2013-10-11 12:15:00,
2013-10-11 07:20:00,67.9,67.9,30.01,North,32767,0.0,0.0,100,0.00,,,0.00,Wunderground v.1.15,2013-10-11 12:20:00,
2013-10-11 07:25:00,68.0,68.0,30.01,North,32767,0.0,0.0,100,0.00,,,0.00,Wunderground v.1.15,2013-10-11 12:25:00,
2013-10-11 07:30:00,68.1,68.1,30.01,North,32767,0.0,0.0,100,0.00,,,0.00,Wunderground v.1.15,2013-10-11 12:30:00,
2013-10-11 07:35:00,68.3,68.3,30.01,North,32767,0.0,0.0,100,0.00,,,0.00,Wunderground v.1.15,2013-10-11 12:35:00,
2013-10-11 07:40:00,68.5,68.5,30.01,North,32767,0.0,0.0,100,0.00,,,0.00,Wunderground v.1.15,2013-10-11 12:40:00,
2013-10-11 07:45:00,68.6,68.6,30.02,North,32767,0.0,0.0,100,0.00,,,0.00,Wunderground v.1.15,2013-10-11 12:45:00,
2013-10-11 07:50:00,69.0,68.7,30.02,North,32767,0.0,0.0,99,0.00,,,0.00,Wunderground v.1.15,2013-10-11 12:50:00,
2013-10-11 07:55:00,69.4,69.4,30.02,North,32767,0.0,0.0,100,0.00,,,0.00,Wunderground v.1.15,2013-10-11 12:55:00,
2013-10-11 08:00:00,69.7,69.4,30.02,North,32767,0.0,0.0,99,0.00,,,0.00,Wunderground v.1.15,2013-10-11 13:00:00,
2013-10-11 08:05:00,69.9,69.9,30.02,North,32767,0.0,0.0,100,0.00,,,0.00,Wunderground v.1.15,2013-10-11 13:05:00,
2013-10-11 08:15:00,70.1,70.1,30.03,North,32767,0.0,0.0,100,0.00,,,0.00,Wunderground v.1.15,2013-10-11 13:15:00,
2013-10-11 08:20:00,70.3,70.3,30.03,North,32767,0.0,0.0,100,0.00,,,0.00,Wunderground v.1.15,2013-10-11 13:20:00,
2013-10-11 08:25:00,70.6,70.6,30.03,North,32767,0.0,0.0,100,0.00,,,0.00,Wunderground v.1.15,2013-10-11 13:25:00,
2013-10-11 08:30:00,71.0,71.0,30.03,North,32767,0.0,0.0,100,0.00,,,0.00,Wunderground v.1.15,2013-10-11 13:30:00,
2013-10-11 08:35:00,71.4,71.4,30.03,North,32767,0.0,0.0,100,0.00,,,0.00,Wunderground v.1.15,2013-10-11 13:35:00,
2013-10-11 08:40:00,71.9,71.9,30.03,North,32767,0.0,0.0,100,0.00,,,0.00,Wunderground v.1.15,2013-10-11 13:40:00,
2013-10-11 08:45:00,72.6,72.6,30.04,North,32767,0.0,0.0,100,0.00,,,0.00,Wunderground v.1.15,2013-10-11 13:45:00,
2013-10-11 08:50:00,73.3,73.3,30.04,North,32767,0.0,0.0,100,0.00,,,0.00,Wunderground v.1.15,2013-10-11 13:50:00,
2013-10-11 09:00:00,74.7,74.1,30.04,North,32767,0.0,0.0,98,0.00,,,0.00,Wunderground v.1.15,2013-10-11 14:00:00,
2013-10-11 09:05:00,75.2,74.6,30.04,North,32767,0.0,0.0,98,0.00,,,0.00,Wunderground v.1.15,2013-10-11 14:05:00,
2013-10-11 09:10:00,75.6,75.0,30.04,North,32767,0.0,0.0,98,0.00,,,0.00,Wunderground v.1.15,2013-10-11 14:10:00,
2013-10-11 09:15:00,76.1,75.5,30.04,North,32767,0.0,0.0,98,0.00,,,0.00,Wunderground v.1.15,2013-10-11 14:15:00,
2013-10-11 09:20:00,76.8,75.6,30.04,North,32767,0.0,0.0,96,0.00,,,0.00,Wunderground v.1.15,2013-10-11 14:20:00,
2013-10-11 09:25:00,77.0,75.1,30.04,North,32767,0.0,0.0,94,0.00,,,0.00,Wunderground v.1.15,2013-10-11 14:25:00,
2013-10-11 09:30:00,77.3,75.1,30.04,North,32767,0.0,0.0,93,0.00,,,0.00,Wunderground v.1.15,2013-10-11 14:30:00,
2013-10-11 09:35:00,77.4,74.9,30.04,North,32767,0.0,0.0,92,0.00,,,0.00,Wunderground v.1.15,2013-10-11 14:35:00,
2013-10-11 09:40:00,77.7,75.2,30.04,North,32767,0.0,0.0,92,0.00,,,0.00,Wunderground v.1.15,2013-10-11 14:40:00,
2013-10-11 09:45:00,78.1,75.6,30.04,North,32767,0.0,0.0,92,0.00,,,0.00,Wunderground v.1.15,2013-10-11 14:45:00,
2013-10-11 09:50:00,78.4,75.6,30.04,North,32767,0.0,0.0,91,0.00,,,0.00,Wunderground v.1.15,2013-10-11 14:50:00,
2013-10-11 09:55:00,78.7,75.8,30.04,North,32767,0.0,0.0,91,0.00,,,0.00,Wunderground v.1.15,2013-10-11 14:55:00,
2013-10-11 10:00:00,78.9,75.4,30.04,North,32767,0.0,0.0,89,0.00,,,0.00,Wunderground v.1.15,2013-10-11 15:00:00,
2013-10-11 10:05:00,79.3,75.8,30.04,North,32767,0.0,0.0,89,0.00,,,0.00,Wunderground v.1.15,2013-10-11 15:05:00,
2013-10-11 10:10:00,79.3,75.1,30.04,North,32767,0.0,0.0,87,0.00,,,0.00,Wunderground v.1.15,2013-10-11 15:10:00,
2013-10-11 10:15:00,79.5,75.3,30.04,North,32767,0.0,0.0,87,0.00,,,0.00,Wunderground v.1.15,2013-10-11 15:15:00,
2013-10-11 10:20:00,79.6,75.0,30.05,North,32767,0.0,0.0,86,0.00,,,0.00,Wunderground v.1.15,2013-10-11 15:20:00,
2013-10-11 10:25:00,79.7,75.1,30.04,North,32767,0.0,0.0,86,0.00,,,0.00,Wunderground v.1.15,2013-10-11 15:25:00,
2013-10-11 10:30:00,79.5,74.2,30.05,North,32767,0.0,0.0,84,0.00,,,0.00,Wunderground v.1.15,2013-10-11 15:30:00,
2013-10-11 10:35:00,79.7,75.5,30.05,North,32767,0.0,0.0,87,0.00,,,0.00,Wunderground v.1.15,2013-10-11 15:35:00,
2013-10-11 10:40:00,80.0,74.7,30.05,North,32767,0.0,0.0,84,0.00,,,0.00,Wunderground v.1.15,2013-10-11 15:40:00,
2013-10-11 10:45:00,80.1,74.8,30.05,North,32767,0.0,0.0,84,0.00,,,0.00,Wunderground v.1.15,2013-10-11 15:45:00,
2013-10-11 10:50:00,80.6,75.3,30.05,North,32767,0.0,0.0,84,0.00,,,0.00,Wunderground v.1.15,2013-10-11 15:50:00,
2013-10-11 10:55:00,80.9,74.9,30.05,North,32767,0.0,0.0,82,0.00,,,0.00,Wunderground v.1.15,2013-10-11 15:55:00,
2013-10-11 11:00:00,81.4,75.4,30.05,North,32767,0.0,0.0,82,0.00,,,0.00,Wunderground v.1.15,2013-10-11 16:00:00,
2013-10-11 11:05:00,82.0,75.2,30.05,North,32767,0.0,0.0,80,0.00,,,0.00,Wunderground v.1.15,2013-10-11 16:05:00,
2013-10-11 11:15:00,82.5,76.1,30.05,North,32767,0.0,0.0,81,0.00,,,0.00,Wunderground v.1.15,2013-10-11 16:15:00,
2013-10-11 11:20:00,82.9,76.5,30.05,North,32767,0.0,0.0,81,0.00,,,0.00,Wunderground v.1.15,2013-10-11 16:20:00,
2013-10-11 11:30:00,83.4,75.8,30.05,North,32767,0.0,0.0,78,0.00,,,0.00,Wunderground v.1.15,2013-10-11 16:30:00,
2013-10-11 11:35:00,83.4,75.0,30.05,North,32767,0.0,0.0,76,0.00,,,0.00,Wunderground v.1.15,2013-10-11 16:35:00,
2013-10-11 11:40:00,83.2,74.8,30.05,North,32767,0.0,0.0,76,0.00,,,0.00,Wunderground v.1.15,2013-10-11 16:40:00,
2013-10-11 11:45:00,83.3,75.7,30.04,North,32767,0.0,0.0,78,0.00,,,0.00,Wunderground v.1.15,2013-10-11 16:45:00,
2013-10-11 11:50:00,83.2,74.8,30.04,North,32767,0.0,0.0,76,0.00,,,0.00,Wunderground v.1.15,2013-10-11 16:50:00,
2013-10-11 11:55:00,83.0,75.8,30.04,North,32767,0.0,0.0,79,0.00,,,0.00,Wunderground v.1.15,2013-10-11 16:55:00,
2013-10-11 12:00:00,83.3,75.3,30.04,North,32767,0.0,0.0,77,0.00,,,0.00,Wunderground v.1.15,2013-10-11 17:00:00,
2013-10-11 12:05:00,83.4,77.0,30.04,North,32767,0.0,0.0,81,0.00,,,0.00,Wunderground v.1.15,2013-10-11 17:05:00,
2013-10-11 12:10:00,83.4,75.8,30.03,North,32767,0.0,0.0,78,0.00,,,0.00,Wunderground v.1.15,2013-10-11 17:10:00,
2013-10-11 12:15:00,83.3,75.3,30.03,North,32767,0.0,0.0,77,0.00,,,0.00,Wunderground v.1.15,2013-10-11 17:15:00,
2013-10-11 12:20:00,83.2,76.4,30.03,North,32767,0.0,0.0,80,0.00,,,0.00,Wunderground v.1.15,2013-10-11 17:20:00,
2013-10-11 12:25:00,82.8,75.2,30.03,North,32767,0.0,0.0,78,0.00,,,0.00,Wunderground v.1.15,2013-10-11 17:25:00,
2013-10-11 12:30:00,82.8,75.6,30.03,North,32767,0.0,0.0,79,0.00,,,0.00,Wunderground v.1.15,2013-10-11 17:30:00,
2013-10-11 12:35:00,83.1,75.5,30.03,North,32767,0.0,0.0,78,0.00,,,0.00,Wunderground v.1.15,2013-10-11 17:35:00,
2013-10-11 12:40:00,83.4,75.8,30.03,North,32767,0.0,0.0,78,0.00,,,0.00,Wunderground v.1.15,2013-10-11 17:40:00,
2013-10-11 12:45:00,83.6,76.0,30.03,North,32767,0.0,0.0,78,0.00,,,0.00,Wunderground v.1.15,2013-10-11 17:45:00,
2013-10-11 12:50:00,83.5,75.9,30.02,North,32767,0.0,0.0,78,0.00,,,0.00,Wunderground v.1.15,2013-10-11 17:50:00,
2013-10-11 12:55:00,83.4,76.2,30.02,North,32767,0.0,0.0,79,0.00,,,0.00,Wunderground v.1.15,2013-10-11 17:55:00,
2013-10-11 13:00:00,83.6,76.0,30.02,North,32767,0.0,0.0,78,0.00,,,0.00,Wunderground v.1.15,2013-10-11 18:00:00,
2013-10-11 13:05:00,83.7,76.1,30.02,North,32767,0.0,0.0,78,0.00,,,0.00,Wunderground v.1.15,2013-10-11 18:05:00,
2013-10-11 13:10:00,83.6,76.4,30.01,North,32767,0.0,0.0,79,0.00,,,0.00,Wunderground v.1.15,2013-10-11 18:10:00,
2013-10-11 13:15:00,83.5,76.3,30.01,North,32767,0.0,0.0,79,0.00,,,0.00,Wunderground v.1.15,2013-10-11 18:15:00,
2013-10-11 13:25:00,83.5,75.9,30.01,North,32767,0.0,0.0,78,0.00,,,0.00,Wunderground v.1.15,2013-10-11 18:25:00,
2013-10-11 13:30:00,83.6,76.4,30.01,North,32767,0.0,0.0,79,0.00,,,0.00,Wunderground v.1.15,2013-10-11 18:30:00,
2013-10-11 13:35:00,83.3,76.1,30.00,North,32767,0.0,0.0,79,0.00,,,0.00,Wunderground v.1.15,2013-10-11 18:35:00,
2013-10-11 13:40:00,83.3,75.7,30.00,North,32767,0.0,0.0,78,0.00,,,0.00,Wunderground v.1.15,2013-10-11 18:40:00,
2013-10-11 13:45:00,83.2,76.0,30.00,North,32767,0.0,0.0,79,0.00,,,0.00,Wunderground v.1.15,2013-10-11 18:45:00,
2013-10-11 13:50:00,83.0,76.2,30.00,North,32767,0.0,0.0,80,0.00,,,0.00,Wunderground v.1.15,2013-10-11 18:50:00,
2013-10-11 13:55:00,82.9,76.5,30.00,North,32767,0.0,0.0,81,0.00,,,0.00,Wunderground v.1.15,2013-10-11 18:55:00,
2013-10-11 14:00:00,82.9,76.1,29.99,North,32767,0.0,0.0,80,0.00,,,0.00,Wunderground v.1.15,2013-10-11 19:00:00,
2013-10-11 14:05:00,82.5,76.4,29.99,North,32767,0.0,0.0,82,0.00,,,0.00,Wunderground v.1.15,2013-10-11 19:05:00,
2013-10-11 14:10:00,82.5,77.5,29.99,North,32767,0.0,0.0,85,0.00,,,0.00,Wunderground v.1.15,2013-10-11 19:10:00,
2013-10-11 14:15:00,82.7,77.0,29.99,North,32767,0.0,0.0,83,0.00,,,0.00,Wunderground v.1.15,2013-10-11 19:15:00,
2013-10-11 14:20:00,82.5,76.4,29.99,North,32767,0.0,0.0,82,0.00,,,0.00,Wunderground v.1.15,2013-10-11 19:20:00,
2013-10-11 14:25:00,82.3,76.6,29.99,North,32767,0.0,0.0,83,0.00,,,0.00,Wunderground v.1.15,2013-10-11 19:25:00,
2013-10-11 14:30:00,82.2,76.5,29.99,North,32767,0.0,0.0,83,0.00,,,0.00,Wunderground v.1.15,2013-10-11 19:30:00,
2013-10-11 14:35:00,82.1,76.4,29.99,North,32767,0.0,0.0,83,0.00,,,0.00,Wunderground v.1.15,2013-10-11 19:35:00,
2013-10-11 14:40:00,82.2,76.9,29.98,North,32767,0.0,0.0,84,0.00,,,0.00,Wunderground v.1.15,2013-10-11 19:40:00,
2013-10-11 14:45:00,82.3,77.0,29.99,North,32767,0.0,0.0,84,0.00,,,0.00,Wunderground v.1.15,2013-10-11 19:45:00,
2013-10-11 14:50:00,82.2,76.9,29.98,North,32767,0.0,0.0,84,0.00,,,0.00,Wunderground v.1.15,2013-10-11 19:50:00,
2013-10-11 14:55:00,82.3,77.3,29.98,North,32767,0.0,0.0,85,0.00,,,0.00,Wunderground v.1.15,2013-10-11 19:55:00,
2013-10-11 15:00:00,82.6,77.3,29.98,North,32767,0.0,0.0,84,0.00,,,0.00,Wunderground v.1.15,2013-10-11 20:00:00,
2013-10-11 15:05:00,82.7,77.0,29.98,North,32767,0.0,0.0,83,0.00,,,0.00,Wunderground v.1.15,2013-10-11 20:05:00,
2013-10-11 15:10:00,82.1,76.8,29.98,North,32767,0.0,0.0,84,0.00,,,0.00,Wunderground v.1.15,2013-10-11 20:10:00,
2013-10-11 15:15:00,82.0,77.0,29.98,North,32767,0.0,0.0,85,0.00,,,0.00,Wunderground v.1.15,2013-10-11 20:15:00,
2013-10-11 15:20:00,81.9,77.3,29.98,North,32767,0.0,0.0,86,0.00,,,0.00,Wunderground v.1.15,2013-10-11 20:20:00,
2013-10-11 15:25:00,82.0,77.4,29.98,North,32767,0.0,0.0,86,0.00,,,0.00,Wunderground v.1.15,2013-10-11 20:25:00,
2013-10-11 15:30:00,82.2,77.6,29.98,North,32767,0.0,0.0,86,0.00,,,0.00,Wunderground v.1.15,2013-10-11 20:30:00,
2013-10-11 15:35:00,82.3,77.7,29.98,North,32767,0.0,0.0,86,0.00,,,0.00,Wunderground v.1.15,2013-10-11 20:35:00,
2013-10-11 15:40:00,82.2,77.6,29.98,North,32767,0.0,0.0,86,0.00,,,0.00,Wunderground v.1.15,2013-10-11 20:40:00,
2013-10-11 15:50:00,81.6,77.0,29.97,North,32767,0.0,0.0,86,0.00,,,0.00,Wunderground v.1.15,2013-10-11 20:50:00,
2013-10-11 15:55:00,81.4,77.2,29.97,North,32767,0.0,0.0,87,0.00,,,0.00,Wunderground v.1.15,2013-10-11 20:55:00,
2013-10-11 16:00:00,81.0,76.8,29.97,North,32767,0.0,0.0,87,0.00,,,0.00,Wunderground v.1.15,2013-10-11 21:00:00,
2013-10-11 16:05:00,80.9,77.0,29.97,North,32767,0.0,0.0,88,0.00,,,0.00,Wunderground v.1.15,2013-10-11 21:05:00,
2013-10-11 16:10:00,80.7,76.5,29.97,North,32767,0.0,0.0,87,0.00,,,0.00,Wunderground v.1.15,2013-10-11 21:10:00,
2013-10-11 16:15:00,80.6,76.7,29.97,North,32767,0.0,0.0,88,0.00,,,0.00,Wunderground v.1.15,2013-10-11 21:15:00,
2013-10-11 16:20:00,80.5,76.6,29.97,North,32767,0.0,0.0,88,0.00,,,0.00,Wunderground v.1.15,2013-10-11 21:20:00,
2013-10-11 16:25:00,80.5,76.3,29.97,North,32767,0.0,0.0,87,0.00,,,0.00,Wunderground v.1.15,2013-10-11 21:25:00,
2013-10-11 16:30:00,80.4,75.8,29.97,North,32767,0.0,0.0,86,0.00,,,0.00,Wunderground v.1.15,2013-10-11 21:30:00,
2013-10-11 16:35:00,80.3,75.7,29.97,North,32767,0.0,0.0,86,0.00,,,0.00,Wunderground v.1.15,2013-10-11 21:35:00,
2013-10-11 16:40:00,80.2,75.6,29.96,North,32767,0.0,0.0,86,0.00,,,0.00,Wunderground v.1.15,2013-10-11 21:40:00,
2013-10-11 16:45:00,80.3,75.7,29.96,North,32767,0.0,0.0,86,0.00,,,0.00,Wunderground v.1.15,2013-10-11 21:45:00,
2013-10-11 16:50:00,80.4,75.1,29.96,North,32767,0.0,0.0,84,0.00,,,0.00,Wunderground v.1.15,2013-10-11 21:50:00,
2013-10-11 16:55:00,80.4,74.8,29.96,North,32767,0.0,0.0,83,0.00,,,0.00,Wunderground v.1.15,2013-10-11 21:55:00,
2013-10-11 17:00:00,80.1,74.5,29.96,North,32767,0.0,0.0,83,0.00,,,0.00,Wunderground v.1.15,2013-10-11 22:00:00,
2013-10-11 17:05:00,79.9,74.3,29.96,North,32767,0.0,0.0,83,0.00,,,0.00,Wunderground v.1.15,2013-10-11 22:05:00,
2013-10-11 17:10:00,79.9,75.0,29.96,North,32767,0.0,0.0,85,0.00,,,0.00,Wunderground v.1.15,2013-10-11 22:10:00,
2013-10-11 17:15:00,79.8,74.2,29.96,North,32767,0.0,0.0,83,0.00,,,0.00,Wunderground v.1.15,2013-10-11 22:15:00,
2013-10-11 17:20:00,79.6,74.0,29.96,North,32767,0.0,0.0,83,0.00,,,0.00,Wunderground v.1.15,2013-10-11 22:20:00,
2013-10-11 17:25:00,79.5,74.2,29.96,North,32767,0.0,0.0,84,0.00,,,0.00,Wunderground v.1.15,2013-10-11 22:25:00,
2013-10-11 17:30:00,79.4,73.8,29.96,North,32767,0.0,0.0,83,0.00,,,0.00,Wunderground v.1.15,2013-10-11 22:30:00,
2013-10-11 17:35:00,79.3,74.0,29.96,North,32767,0.0,0.0,84,0.00,,,0.00,Wunderground v.1.15,2013-10-11 22:35:00,
2013-10-11 17:40:00,79.1,73.8,29.96,North,32767,0.0,0.0,84,0.00,,,0.00,Wunderground v.1.15,2013-10-11 22:40:00,
2013-10-11 17:45:00,78.9,74.0,29.96,North,32767,0.0,0.0,85,0.00,,,0.00,Wunderground v.1.15,2013-10-11 22:45:00,
2013-10-11 17:50:00,78.8,73.9,29.96,North,32767,0.0,0.0,85,0.00,,,0.00,Wunderground v.1.15,2013-10-11 22:50:00,
2013-10-11 17:55:00,78.7,73.8,29.96,North,32767,0.0,0.0,85,0.00,,,0.00,Wunderground v.1.15,2013-10-11 22:55:00,
2013-10-11 18:00:00,78.5,73.6,29.96,North,32767,0.0,0.0,85,0.00,,,0.00,Wunderground v.1.15,2013-10-11 23:00:00,
2013-10-11 18:05:00,78.3,73.8,29.96,North,32767,0.0,0.0,86,0.00,,,0.00,Wunderground v.1.15,2013-10-11 23:05:00,
2013-10-11 18:10:00,78.2,73.7,29.96,North,32767,0.0,0.0,86,0.00,,,0.00,Wunderground v.1.15,2013-10-11 23:10:00,
2013-10-11 18:15:00,77.9,73.0,29.96,North,32767,0.0,0.0,85,0.00,,,0.00,Wunderground v.1.15,2013-10-11 23:15:00,
2013-10-11 18:20:00,77.8,73.3,29.96,North,32767,0.0,0.0,86,0.00,,,0.00,Wunderground v.1.15,2013-10-11 23:20:00,
2013-10-11 18:25:00,77.6,73.1,29.96,North,32767,0.0,0.0,86,0.00,,,0.00,Wunderground v.1.15,2013-10-11 23:25:00,
2013-10-11 18:30:00,77.4,72.9,29.96,North,32767,0.0,0.0,86,0.00,,,0.00,Wunderground v.1.15,2013-10-11 23:30:00,
2013-10-11 18:35:00,77.3,73.1,29.97,North,32767,0.0,0.0,87,0.00,,,0.00,Wunderground v.1.15,2013-10-11 23:35:00,
2013-10-11 18:40:00,77.2,73.0,29.97,North,32767,0.0,0.0,87,0.00,,,0.00,Wunderground v.1.15,2013-10-11 23:40:00,
2013-10-11 18:45:00,77.1,72.9,29.97,North,32767,0.0,0.0,87,0.00,,,0.00,Wunderground v.1.15,2013-10-11 23:45:00,
2013-10-11 18:50:00,76.9,72.7,29.97,North,32767,0.0,0.0,87,0.00,,,0.00,Wunderground v.1.15,2013-10-11 23:50:00,
2013-10-11 18:55:00,76.7,72.5,29.97,North,32767,0.0,0.0,87,0.00,,,0.00,Wunderground v.1.15,2013-10-11 23:55:00,
2013-10-11 19:00:00,76.7,72.9,29.97,North,32767,0.0,0.0,88,0.00,,,0.00,Wunderground v.1.15,2013-10-12 00:00:00,
2013-10-11 19:05:00,76.6,73.1,29.97,North,32767,0.0,0.0,89,0.00,,,0.00,Wunderground v.1.15,2013-10-12 00:05:00,
2013-10-11 19:10:00,76.4,72.9,29.97,North,32767,0.0,0.0,89,0.00,,,0.00,Wunderground v.1.15,2013-10-12 00:10:00,
2013-10-11 19:15:00,76.3,73.1,29.97,North,32767,0.0,0.0,90,0.00,,,0.00,Wunderground v.1.15,2013-10-12 00:15:00,
2013-10-11 19:20:00,76.2,73.1,29.97,North,32767,0.0,0.0,90,0.00,,,0.00,Wunderground v.1.15,2013-10-12 00:20:00,
2013-10-11 19:25:00,76.1,73.0,29.98,North,32767,0.0,0.0,90,0.00,,,0.00,Wunderground v.1.15,2013-10-12 00:25:00,
2013-10-11 19:35:00,76.0,72.9,29.98,North,32767,0.0,0.0,90,0.00,,,0.00,Wunderground v.1.15,2013-10-12 00:35:00,
2013-10-11 19:40:00,76.0,73.2,29.98,North,32767,0.0,0.0,91,0.00,,,0.00,Wunderground v.1.15,2013-10-12 00:40:00,
2013-10-11 19:45:00,76.0,73.2,29.98,North,32767,0.0,0.0,91,0.00,,,0.00,Wunderground v.1.15,2013-10-12 00:45:00,
2013-10-11 19:50:00,75.9,73.1,29.98,North,32767,0.0,0.0,91,0.00,,,0.00,Wunderground v.1.15,2013-10-12 00:50:00,
2013-10-11 19:55:00,75.8,73.0,29.98,North,32767,0.0,0.0,91,0.00,,,0.00,Wunderground v.1.15,2013-10-12 00:55:00,
2013-10-11 20:00:00,75.8,73.0,29.98,North,32767,0.0,0.0,91,0.00,,,0.00,Wunderground v.1.15,2013-10-12 01:00:00,
2013-10-11 20:05:00,75.7,73.2,29.98,North,32767,0.0,0.0,92,0.00,,,0.00,Wunderground v.1.15,2013-10-12 01:05:00,
2013-10-11 20:10:00,75.7,73.2,29.98,North,32767,0.0,0.0,92,0.00,,,0.00,Wunderground v.1.15,2013-10-12 01:10:00,
2013-10-11 20:15:00,75.7,73.2,29.99,North,32767,0.0,0.0,92,0.00,,,0.00,Wunderground v.1.15,2013-10-12 01:15:00,
2013-10-11 20:20:00,75.7,73.2,29.99,North,32767,0.0,0.0,92,0.00,,,0.00,Wunderground v.1.15,2013-10-12 01:20:00,
2013-10-11 20:25:00,75.7,73.5,29.99,North,32767,0.0,0.0,93,0.00,,,0.00,Wunderground v.1.15,2013-10-12 01:25:00,
2013-10-11 20:30:00,75.7,73.5,29.99,North,32767,0.0,0.0,93,0.00,,,0.00,Wunderground v.1.15,2013-10-12 01:30:00,
2013-10-11 20:35:00,75.6,73.4,29.99,North,32767,0.0,0.0,93,0.00,,,0.00,Wunderground v.1.15,2013-10-12 01:35:00,
2013-10-11 20:40:00,75.6,73.4,29.99,North,32767,0.0,0.0,93,0.00,,,0.00,Wunderground v.1.15,2013-10-12 01:40:00,
2013-10-11 20:45:00,75.6,73.4,29.99,North,32767,0.0,0.0,93,0.00,,,0.00,Wunderground v.1.15,2013-10-12 01:45:00,
2013-10-11 20:50:00,75.5,73.3,29.99,North,32767,0.0,0.0,93,0.00,,,0.00,Wunderground v.1.15,2013-10-12 01:50:00,
2013-10-11 20:55:00,75.5,73.7,29.99,North,32767,0.0,0.0,94,0.00,,,0.00,Wunderground v.1.15,2013-10-12 01:55:00,
2013-10-11 21:00:00,75.3,73.1,29.99,North,32767,0.0,0.0,93,0.00,,,0.00,Wunderground v.1.15,2013-10-12 02:00:00,
2013-10-11 21:05:00,75.4,73.6,29.99,North,32767,0.0,0.0,94,0.00,,,0.00,Wunderground v.1.15,2013-10-12 02:05:00,
2013-10-11 21:10:00,75.4,73.6,29.99,North,32767,0.0,0.0,94,0.00,,,0.00,Wunderground v.1.15,2013-10-12 02:10:00,
2013-10-11 21:15:00,75.5,73.7,29.99,North,32767,0.0,0.0,94,0.00,,,0.00,Wunderground v.1.15,2013-10-12 02:15:00,
2013-10-11 21:20:00,75.6,73.8,29.99,North,32767,0.0,0.0,94,0.00,,,0.00,Wunderground v.1.15,2013-10-12 02:20:00,
2013-10-11 21:25:00,75.6,73.8,29.99,North,32767,0.0,0.0,94,0.00,,,0.00,Wunderground v.1.15,2013-10-12 02:25:00,
2013-10-11 21:30:00,75.6,73.8,29.99,North,32767,0.0,0.0,94,0.00,,,0.00,Wunderground v.1.15,2013-10-12 02:30:00,
2013-10-11 21:35:00,75.6,73.8,29.99,North,32767,0.0,0.0,94,0.00,,,0.00,Wunderground v.1.15,2013-10-12 02:35:00,
2013-10-11 21:40:00,75.6,73.8,30.00,North,32767,0.0,0.0,94,0.00,,,0.00,Wunderground v.1.15,2013-10-12 02:40:00,
2013-10-11 21:45:00,75.6,74.1,30.00,North,32767,0.0,0.0,95,0.00,,,0.00,Wunderground v.1.15,2013-10-12 02:45:00,
2013-10-11 21:50:00,75.6,74.1,30.00,North,32767,0.0,0.0,95,0.00,,,0.00,Wunderground v.1.15,2013-10-12 02:50:00,
2013-10-11 21:55:00,75.5,74.0,30.00,North,32767,0.0,0.0,95,0.00,,,0.00,Wunderground v.1.15,2013-10-12 02:55:00,
2013-10-11 22:00:00,75.5,74.0,30.00,North,32767,0.0,0.0,95,0.00,,,0.00,Wunderground v.1.15,2013-10-12 03:00:00,
2013-10-11 22:05:00,75.5,74.0,30.00,North,32767,0.0,0.0,95,0.00,,,0.00,Wunderground v.1.15,2013-10-12 03:05:00,
2013-10-11 22:10:00,75.6,74.1,30.00,North,32767,0.0,0.0,95,0.00,,,0.00,Wunderground v.1.15,2013-10-12 03:10:00,
2013-10-11 22:15:00,75.7,74.2,30.00,North,32767,0.0,0.0,95,0.00,,,0.00,Wunderground v.1.15,2013-10-12 03:15:00,
2013-10-11 22:20:00,75.8,73.9,30.00,North,32767,0.0,0.0,94,0.00,,,0.00,Wunderground v.1.15,2013-10-12 03:20:00,
2013-10-11 22:25:00,75.9,74.0,30.00,North,32767,0.0,0.0,94,0.00,,,0.00,Wunderground v.1.15,2013-10-12 03:25:00,
2013-10-11 22:30:00,75.9,74.0,30.00,North,32767,0.0,0.0,94,0.00,,,0.00,Wunderground v.1.15,2013-10-12 03:30:00,
2013-10-11 22:35:00,76.0,74.1,30.00,North,32767,0.0,0.0,94,0.00,,,0.00,Wunderground v.1.15,2013-10-12 03:35:00,
2013-10-11 22:40:00,76.0,74.1,30.00,North,32767,0.0,0.0,94,0.00,,,0.00,Wunderground v.1.15,2013-10-12 03:40:00,
2013-10-11 22:45:00,76.0,74.5,30.00,North,32767,0.0,0.0,95,0.00,,,0.00,Wunderground v.1.15,2013-10-12 03:45:00,
2013-10-11 22:50:00,75.9,74.4,30.00,North,32767,0.0,0.0,95,0.00,,,0.00,Wunderground v.1.15,2013-10-12 03:50:00,
2013-10-11 22:55:00,76.0,74.5,30.00,North,32767,0.0,0.0,95,0.00,,,0.00,Wunderground v.1.15,2013-10-12 03:55:00,
2013-10-11 23:00:00,75.9,74.4,30.00,North,32767,0.0,0.0,95,0.00,,,0.00,Wunderground v.1.15,2013-10-12 04:00:00,
2013-10-11 23:05:00,75.9,74.4,30.00,North,32767,0.0,0.0,95,0.00,,,0.00,Wunderground v.1.15,2013-10-12 04:05:00,
2013-10-11 23:10:00,75.8,74.3,29.99,North,32767,0.0,0.0,95,0.00,,,0.00,Wunderground v.1.15,2013-10-12 04:10:00,
2013-10-11 23:15:00,75.8,74.3,29.99,North,32767,0.0,0.0,95,0.00,,,0.00,Wunderground v.1.15,2013-10-12 04:15:00,
2013-10-11 23:20:00,75.8,74.3,29.99,North,32767,0.0,0.0,95,0.00,,,0.00,Wunderground v.1.15,2013-10-12 04:20:00,
2013-10-11 23:25:00,75.8,74.3,29.99,North,32767,0.0,0.0,95,0.00,,,0.00,Wunderground v.1.15,2013-10-12 04:25:00,
2013-10-11 23:30:00,75.7,74.2,29.99,North,32767,0.0,0.0,95,0.00,,,0.00,Wunderground v.1.15,2013-10-12 04:30:00,
2013-10-11 23:35:00,75.7,74.5,29.99,North,32767,0.0,0.0,96,0.00,,,0.00,Wunderground v.1.15,2013-10-12 04:35:00,
2013-10-11 23:40:00,75.6,74.4,29.99,North,32767,0.0,0.0,96,0.00,,,0.00,Wunderground v.1.15,2013-10-12 04:40:00,
2013-10-11 23:45:00,75.5,74.3,30.00,North,32767,0.0,0.0,96,0.00,,,0.00,Wunderground v.1.15,2013-10-12 04:45:00,
2013-10-11 23:50:00,75.4,74.2,30.00,North,32767,0.0,0.0,96,0.00,,,0.00,Wunderground v.1.15,2013-10-12 04:50:00,
2013-10-11 23:55:00,75.3,74.1,29.99,North,32767,0.0,0.0,96,0.00,,,0.00,Wunderground v.1.15,2013-10-12 04:55:00,